Time;durP1;ratioP1;P1;durP2;ratioP2;P2;SDS_P1;SDS_P2;PMS_P1;PMS_P2;Temp;Humidity;BMP_temperature;BMP_pressure;BME280_temperature;BME280_humidity;BME280_pressure;Samples;Min_cycle;Max_cycle;Signal;HPM_P1;HPM_P2
2021/10/10 00:01:53;;;;;;;22.13;10.73;;;;;;;17.92;71.04;100881.31;5028457;28;20037;-73
2021/10/10 00:04:19;;;;;;;14.00;10.30;;;;;;;17.81;71.04;100891.34;5028179;28;20045;-74
2021/10/10 00:06:44;;;;;;;14.07;10.40;;;;;;;17.82;71.45;100887.56;5023536;28;20508;-74
2021/10/10 00:09:10;;;;;;;15.98;9.30;;;;;;;17.52;72.09;100878.91;5029534;28;20037;-74
2021/10/10 00:11:36;;;;;;;12.27;8.63;;;;;;;17.56;72.13;100876.47;5043225;28;20486;-74
2021/10/10 00:14:02;;;;;;;14.13;8.10;;;;;;;17.62;71.71;100875.41;5029492;28;20080;-73
2021/10/10 00:16:27;;;;;;;12.63;7.60;;;;;;;17.49;72.07;100876.69;5028667;28;20308;-74
2021/10/10 00:18:53;;;;;;;10.93;6.20;;;;;;;17.49;71.91;100871.25;5025189;28;20042;-74
2021/10/10 00:21:19;;;;;;;7.82;5.80;;;;;;;17.39;72.35;100877.44;5019609;28;20116;-74
2021/10/10 00:23:44;;;;;;;9.27;5.50;;;;;;;17.41;72.37;100880.72;5025234;28;20112;-75
2021/10/10 00:26:10;;;;;;;6.53;4.85;;;;;;;17.39;72.60;100874.69;5026209;28;20030;-75
2021/10/10 00:28:35;;;;;;;10.75;4.78;;;;;;;17.41;72.53;100864.38;5028492;28;20798;-74
2021/10/10 00:31:01;;;;;;;3.65;3.10;;;;;;;17.40;72.35;100868.19;5025020;28;20117;-74
2021/10/10 00:33:27;;;;;;;4.03;2.90;;;;;;;17.42;72.20;100879.63;5028034;28;20102;-74
2021/10/10 00:35:53;;;;;;;5.43;2.90;;;;;;;17.44;72.05;100879.38;5027297;28;20030;-73
2021/10/10 00:38:19;;;;;;;2.88;2.50;;;;;;;17.42;72.18;100882.34;5029265;28;20505;-74
2021/10/10 00:40:45;;;;;;;8.13;4.32;;;;;;;17.47;72.32;100875.31;5026498;28;20038;-75
2021/10/10 00:43:11;;;;;;;5.40;4.00;;;;;;;17.54;71.91;100879.47;5031373;28;20491;-75
2021/10/10 00:45:36;;;;;;;4.90;3.42;;;;;;;17.51;72.29;100881.88;5029754;28;20044;-75
2021/10/10 00:48:03;;;;;;;4.90;3.25;;;;;;;17.47;72.08;100873.41;5030011;28;20037;-75
2021/10/10 00:50:30;;;;;;;8.05;3.22;;;;;;;17.44;72.31;100879.38;5027493;28;20029;-75
2021/10/10 00:52:58;;;;;;;2.88;2.53;;;;;;;17.37;72.31;100870.63;5026881;28;20049;-74
2021/10/10 00:55:26;;;;;;;6.13;3.10;;;;;;;17.46;72.26;100879.09;5026375;28;20049;-73
2021/10/10 00:57:53;;;;;;;4.38;3.30;;;;;;;17.40;72.40;100889.97;5027454;28;20416;-75
2021/10/10 01:00:20;;;;;;;5.03;3.40;;;;;;;17.45;72.25;100883.75;5027014;28;20021;-74
2021/10/10 01:02:46;;;;;;;2.92;1.90;;;;;;;17.32;72.50;100873.31;5023931;28;20061;-74
2021/10/10 01:05:14;;;;;;;3.05;2.10;;;;;;;17.42;72.18;100884.28;5030282;28;20065;-74
2021/10/10 01:07:41;;;;;;;2.67;0.80;;;;;;;17.40;72.09;100881.78;5028230;28;20021;-73
2021/10/10 01:10:08;;;;;;;0.75;0.75;;;;;;;17.37;72.07;100882.31;5020948;28;20048;-75
2021/10/10 01:12:34;;;;;;;0.85;0.60;;;;;;;17.36;71.89;100877.13;5032093;28;20022;-75
2021/10/10 01:15:02;;;;;;;2.30;0.50;;;;;;;17.30;72.31;100875.47;5026372;28;20037;-74
2021/10/10 01:17:28;;;;;;;0.43;0.40;;;;;;;17.35;71.91;100879.03;5028117;28;20030;-73
2021/10/10 01:19:54;;;;;;;0.65;0.45;;;;;;;17.35;72.11;100875.50;5027519;28;20037;-73
2021/10/10 01:22:21;;;;;;;2.00;0.60;;;;;;;17.40;72.09;100881.78;5025411;28;20041;-74
2021/10/10 01:24:47;;;;;;;0.52;0.40;;;;;;;17.38;72.25;100880.44;5024802;28;20501;-73
2021/10/10 01:27:14;;;;;;;0.50;0.50;;;;;;;17.21;72.81;100880.53;5031955;28;20040;-75
2021/10/10 01:29:40;;;;;;;0.50;0.50;;;;;;;17.22;72.43;100876.75;5030079;28;20041;-77
2021/10/10 01:32:06;;;;;;;0.70;0.60;;;;;;;17.36;71.92;100875.22;5030220;28;20407;-75
2021/10/10 01:34:31;;;;;;;0.90;0.60;;;;;;;17.48;71.72;100880.50;5030512;28;20044;-74
2021/10/10 01:36:57;;;;;;;0.60;0.60;;;;;;;17.45;72.22;100880.19;5029138;28;20026;-74
2021/10/10 01:39:23;;;;;;;0.73;0.50;;;;;;;17.41;72.31;100878.00;5027500;28;20053;-75
2021/10/10 01:41:49;;;;;;;2.47;2.28;;;;;;;17.54;71.89;100875.91;5030177;28;20399;-74
2021/10/10 01:44:16;;;;;;;8.15;6.18;;;;;;;17.45;72.17;100877.47;5030403;28;20033;-74
2021/10/10 01:46:43;;;;;;;4.80;1.85;;;;;;;17.40;72.28;100872.81;5026456;28;20568;-75
2021/10/10 01:49:09;;;;;;;4.07;3.08;;;;;;;17.54;71.66;100865.84;5025472;28;20033;-75
2021/10/10 01:51:36;;;;;;;4.15;2.40;;;;;;;17.50;72.03;100869.34;5028992;28;20443;-75
2021/10/10 01:54:02;;;;;;;5.18;2.17;;;;;;;17.37;72.76;100863.25;5027935;28;20045;-75
2021/10/10 01:56:29;;;;;;;3.75;3.00;;;;;;;17.34;72.43;100862.97;5027605;28;20395;-75
2021/10/10 01:58:54;;;;;;;1.10;1.00;;;;;;;17.27;73.09;100864.00;5030217;28;20947;-73
2021/10/10 02:01:20;;;;;;;2.78;1.90;;;;;;;17.24;73.29;100859.09;5025936;28;20037;-74
2021/10/10 02:03:45;;;;;;;6.40;2.17;;;;;;;17.29;72.71;100860.19;5027718;28;20025;-73
2021/10/10 02:06:11;;;;;;;2.47;1.92;;;;;;;17.29;72.93;100862.94;5043571;28;20561;-74
2021/10/10 02:08:36;;;;;;;3.95;1.33;;;;;;;17.11;73.72;100859.53;5019189;28;20034;-73
2021/10/10 02:11:02;;;;;;;1.70;1.15;;;;;;;17.18;73.08;100862.84;5021511;28;20030;-73
2021/10/10 02:13:27;;;;;;;3.05;1.00;;;;;;;17.18;73.03;100857.41;5017784;28;20088;-74
2021/10/10 02:15:55;;;;;;;0.80;0.80;;;;;;;17.24;73.06;100853.63;5028746;28;20037;-74
2021/10/10 02:18:21;;;;;;;0.60;0.60;;;;;;;17.02;73.30;100856.44;5014618;28;20122;-75
2021/10/10 02:20:46;;;;;;;2.30;0.43;;;;;;;17.15;72.79;100863.38;5027480;28;20619;-75
2021/10/10 02:23:12;;;;;;;0.50;0.50;;;;;;;17.20;72.83;100865.28;5025212;28;20062;-74
2021/10/10 02:25:39;;;;;;;0.40;0.40;;;;;;;17.02;73.15;100870.03;5018197;28;20395;-75
2021/10/10 02:28:05;;;;;;;1.33;0.38;;;;;;;17.16;72.59;100869.63;5031726;28;20037;-75
2021/10/10 02:30:30;;;;;;;0.35;0.35;;;;;;;17.27;71.73;100874.06;5026974;28;20030;-74
2021/10/10 02:32:56;;;;;;;0.75;0.60;;;;;;;17.09;72.36;100875.28;5030473;28;20041;-75
2021/10/10 02:35:22;;;;;;;0.45;0.40;;;;;;;17.10;72.35;100872.28;5024380;28;20033;-75
2021/10/10 02:37:47;;;;;;;1.15;0.50;;;;;;;17.29;71.63;100871.91;5020645;28;20065;-74
2021/10/10 02:40:13;;;;;;;0.88;0.40;;;;;;;17.33;71.64;100880.38;5020528;28;20034;-74
2021/10/10 02:42:39;;;;;;;0.40;0.20;;;;;;;17.39;71.36;100866.53;5034953;28;20033;-75
2021/10/10 02:45:05;;;;;;;1.20;0.52;;;;;;;17.35;71.72;100865.41;5038666;28;20042;-75
2021/10/10 02:47:31;;;;;;;0.75;0.40;;;;;;;17.26;71.96;100865.09;5019511;28;20034;-75
2021/10/10 02:49:58;;;;;;;0.40;0.40;;;;;;;17.29;71.77;100868.38;5018820;28;20047;-75
2021/10/10 02:52:23;;;;;;;1.48;0.50;;;;;;;17.36;71.06;100869.78;5038738;28;20486;-74
2021/10/10 02:54:50;;;;;;;0.50;0.50;;;;;;;17.30;71.48;100865.38;5026924;28;20049;-74
2021/10/10 02:57:17;;;;;;;1.73;0.70;;;;;;;17.46;71.24;100857.31;5031793;28;20033;-74
2021/10/10 02:59:42;;;;;;;1.23;0.50;;;;;;;17.63;70.49;100862.63;5012831;28;20045;-74
2021/10/10 03:02:08;;;;;;;1.95;0.50;;;;;;;17.47;70.99;100859.78;5015191;28;20026;-73
2021/10/10 03:04:34;;;;;;;0.60;0.60;;;;;;;17.47;70.70;100854.34;5011004;28;20034;-73
2021/10/10 03:06:59;;;;;;;0.75;0.70;;;;;;;17.50;70.31;100850.25;5029329;28;20372;-73
2021/10/10 03:09:25;;;;;;;0.60;0.45;;;;;;;17.47;70.30;100857.06;5029842;28;20408;-72
2021/10/10 03:11:51;;;;;;;0.88;0.80;;;;;;;17.50;70.14;100856.56;5030521;28;20029;-73
2021/10/10 03:14:16;;;;;;;0.95;0.65;;;;;;;17.41;71.01;100860.84;5026006;28;20083;-73
2021/10/10 03:16:42;;;;;;;1.58;0.85;;;;;;;17.36;70.43;100863.53;5010021;28;20033;-72
2021/10/10 03:19:08;;;;;;;1.88;0.77;;;;;;;17.42;69.99;100867.94;5027902;28;20065;-73
2021/10/10 03:21:33;;;;;;;1.13;0.70;;;;;;;17.27;70.45;100855.84;5036214;28;20359;-73
2021/10/10 03:23:59;;;;;;;2.03;0.77;;;;;;;17.38;70.02;100856.72;5035608;28;20108;-75
2021/10/10 03:26:26;;;;;;;2.45;0.90;;;;;;;17.32;70.29;100860.50;5031519;28;20052;-73
2021/10/10 03:28:51;;;;;;;1.48;0.90;;;;;;;17.10;70.15;100857.88;5025763;28;20046;-73
2021/10/10 03:31:17;;;;;;;5.03;1.08;;;;;;;17.30;69.60;100857.22;5029478;28;20562;-73
2021/10/10 03:33:43;;;;;;;2.75;0.88;;;;;;;17.07;70.04;100844.78;5011825;28;20041;-73
2021/10/10 03:36:09;;;;;;;2.10;0.70;;;;;;;17.07;69.68;100847.50;5029782;28;20083;-73
2021/10/10 03:38:35;;;;;;;2.15;0.80;;;;;;;17.20;69.27;100846.25;5025884;28;20029;-73
2021/10/10 03:41:00;;;;;;;2.15;0.70;;;;;;;17.17;69.84;100835.88;5024849;28;20121;-73
2021/10/10 03:43:26;;;;;;;0.50;0.50;;;;;;;17.33;68.62;100851.25;5028588;28;20041;-72
2021/10/10 03:45:52;;;;;;;2.92;0.85;;;;;;;17.09;69.03;100842.63;5029892;28;20514;-73
2021/10/10 03:48:18;;;;;;;1.08;0.70;;;;;;;17.00;68.75;100844.19;5037290;28;20033;-73
2021/10/10 03:50:43;;;;;;;3.20;0.60;;;;;;;17.09;68.42;100839.91;5039705;28;20029;-73
2021/10/10 03:53:09;;;;;;;0.70;0.50;;;;;;;17.23;67.67;100845.72;5037448;28;20029;-73
2021/10/10 03:55:36;;;;;;;0.75;0.60;;;;;;;17.22;67.64;100853.06;5036285;28;20053;-72
2021/10/10 03:58:02;;;;;;;2.83;0.80;;;;;;;17.21;68.18;100850.59;5029401;28;20042;-73
2021/10/10 04:00:30;;;;;;;2.00;0.70;;;;;;;17.04;68.83;100839.88;5027971;28;20029;-73
2021/10/10 04:02:58;;;;;;;1.75;0.57;;;;;;;17.05;67.88;100841.50;5033589;28;20102;-73
2021/10/10 04:05:45;;;;;;;1.55;0.50;;;;;;;16.95;68.75;100844.91;5032692;28;20029;-73
2021/10/10 04:08:09;;;;;;;5.10;1.05;;;;;;;16.93;68.35;100841.63;5028419;28;20045;-73
2021/10/10 04:10:35;;;;;;;0.63;0.60;;;;;;;16.75;68.90;100838.19;5027174;28;20038;-73
2021/10/10 04:13:02;;;;;;;2.65;0.90;;;;;;;16.55;69.55;100838.81;5031338;28;20117;-73
2021/10/10 04:15:29;;;;;;;2.05;0.68;;;;;;;16.44;69.80;100846.03;5028338;28;20506;-72
2021/10/10 04:17:55;;;;;;;0.88;0.68;;;;;;;16.20;70.93;100837.31;5017502;28;20056;-72
2021/10/10 04:20:21;;;;;;;3.60;1.02;;;;;;;16.06;71.83;100837.69;5019144;28;20052;-73
2021/10/10 04:22:47;;;;;;;2.42;1.10;;;;;;;15.98;71.18;100838.16;5026840;28;20042;-73
2021/10/10 04:25:14;;;;;;;1.48;0.70;;;;;;;15.85;72.31;100830.34;5029017;28;20029;-72
2021/10/10 04:27:40;;;;;;;2.50;1.05;;;;;;;15.59;72.04;100832.69;5015432;28;20042;-72
2021/10/10 04:30:09;;;;;;;3.72;1.40;;;;;;;15.49;71.40;100833.34;5012740;28;20133;-72
2021/10/10 04:32:35;;;;;;;2.50;1.10;;;;;;;15.53;71.77;100829.06;5020821;28;20038;-73
2021/10/10 04:35:00;;;;;;;1.27;0.82;;;;;;;15.62;70.95;100833.00;5029485;28;20032;-72
2021/10/10 04:37:26;;;;;;;1.42;0.70;;;;;;;15.63;71.05;100833.84;5017247;28;20064;-72
2021/10/10 04:39:52;;;;;;;2.15;0.80;;;;;;;15.61;71.13;100835.97;5029546;28;20037;-73
2021/10/10 04:42:17;;;;;;;1.80;0.90;;;;;;;15.48;71.77;100829.84;5038720;28;20088;-73
2021/10/10 04:44:43;;;;;;;1.02;0.85;;;;;;;15.40;71.67;100830.25;5022889;28;20496;-74
2021/10/10 04:47:09;;;;;;;2.50;1.02;;;;;;;15.36;71.79;100835.34;5012521;28;20105;-74
2021/10/10 04:49:35;;;;;;;1.70;1.00;;;;;;;15.41;71.83;100831.06;5021840;28;20488;-74
2021/10/10 04:52:02;;;;;;;2.47;1.00;;;;;;;15.36;71.87;100840.78;5018469;28;20028;-74
2021/10/10 04:54:33;;;;;;;3.78;1.23;;;;;;;15.38;72.04;100843.25;5018670;28;20046;-72
2021/10/10 04:56:58;;;;;;;2.40;1.13;;;;;;;15.18;72.41;100839.16;5011492;28;20030;-73
2021/10/10 04:59:24;;;;;;;3.60;1.20;;;;;;;15.28;72.17;100849.31;5012304;28;20103;-73
2021/10/10 05:01:49;;;;;;;2.60;1.13;;;;;;;15.23;71.96;100870.94;5024834;28;20067;-74
2021/10/10 05:04:15;;;;;;;3.55;0.73;;;;;;;15.11;72.48;100871.03;5028652;28;20030;-74
2021/10/10 05:06:40;;;;;;;3.88;0.90;;;;;;;15.27;71.99;100882.97;5025709;28;20649;-74
2021/10/10 05:09:06;;;;;;;2.15;0.80;;;;;;;15.15;72.37;100898.50;5018643;28;20037;-75
2021/10/10 05:11:31;;;;;;;2.90;0.80;;;;;;;14.92;72.82;100908.41;5016794;28;20479;-72
2021/10/10 05:13:57;;;;;;;3.95;0.65;;;;;;;14.90;71.14;100919.47;5015248;28;20036;-73
2021/10/10 05:16:22;;;;;;;1.10;0.65;;;;;;;14.82;70.44;100924.50;5030565;28;20579;-73
2021/10/10 05:18:49;;;;;;;3.72;0.52;;;;;;;15.05;70.00;100931.72;5022942;28;20391;-73
2021/10/10 05:21:14;;;;;;;0.95;0.50;;;;;;;15.18;69.35;100930.56;5021653;28;20391;-73
2021/10/10 05:23:41;;;;;;;1.15;0.70;;;;;;;15.20;69.32;100936.56;5014925;28;20037;-73
2021/10/10 05:26:08;;;;;;;0.93;0.65;;;;;;;15.31;68.98;100934.88;5030496;28;20033;-73
2021/10/10 05:28:34;;;;;;;1.05;0.60;;;;;;;15.50;68.54;100920.00;5014207;28;20029;-72
2021/10/10 05:31:00;;;;;;;3.22;0.80;;;;;;;15.39;68.24;100915.47;5027104;28;20403;-73
2021/10/10 05:33:26;;;;;;;5.38;1.00;;;;;;;15.26;68.54;100907.66;5024954;28;20112;-73
2021/10/10 05:35:51;;;;;;;5.05;1.40;;;;;;;14.97;69.87;100903.06;5013994;28;20497;-73
2021/10/10 05:38:17;;;;;;;1.10;1.00;;;;;;;15.00;69.66;100910.72;5011259;28;20515;-73
2021/10/10 05:40:42;;;;;;;4.93;1.45;;;;;;;15.05;69.71;100910.81;5023280;28;20030;-73
2021/10/10 05:43:08;;;;;;;2.25;1.55;;;;;;;14.91;70.59;100914.91;5029579;28;20030;-72
2021/10/10 05:45:34;;;;;;;3.03;1.80;;;;;;;14.77;71.32;100923.31;5015718;28;20026;-73
2021/10/10 05:47:59;;;;;;;11.27;2.13;;;;;;;14.56;71.70;100922.06;5015107;28;20043;-73
2021/10/10 05:50:25;;;;;;;2.20;2.00;;;;;;;14.62;71.43;100923.81;5028422;28;20025;-73
2021/10/10 05:52:51;;;;;;;2.45;2.10;;;;;;;14.56;71.78;100924.75;5013261;28;20030;-73
2021/10/10 05:55:21;;;;;;;2.58;1.85;;;;;;;14.56;72.16;100919.34;5018444;28;20046;-74
2021/10/10 05:57:49;;;;;;;4.95;2.20;;;;;;;14.46;72.39;100919.13;5025930;28;20108;-74
2021/10/10 06:00:16;;;;;;;5.05;2.53;;;;;;;14.39;72.55;100919.28;5028468;28;20025;-74
2021/10/10 06:02:42;;;;;;;2.40;2.20;;;;;;;14.25;72.34;100921.41;5012695;28;20048;-74
2021/10/10 06:05:12;;;;;;;3.15;2.40;;;;;;;14.10;72.99;100921.09;5010134;28;20034;-74
2021/10/10 06:07:38;;;;;;;3.40;2.58;;;;;;;13.89;72.69;100910.59;5020509;28;20065;-75
2021/10/10 06:10:06;;;;;;;3.67;2.35;;;;;;;13.75;73.72;100917.31;5026866;28;20495;-74
2021/10/10 06:12:34;;;;;;;4.80;2.92;;;;;;;13.69;74.57;100919.09;5024689;28;20049;-73
2021/10/10 06:15:00;;;;;;;6.70;3.22;;;;;;;13.63;74.49;100919.19;5013165;28;20046;-74
2021/10/10 06:17:26;;;;;;;3.22;2.67;;;;;;;13.51;73.71;100919.19;5019301;28;20044;-74
2021/10/10 06:19:51;;;;;;;3.72;2.83;;;;;;;13.39;74.79;100917.25;5023199;28;20483;-73
2021/10/10 06:22:17;;;;;;;6.13;3.47;;;;;;;13.33;74.49;100912.78;5015153;28;20475;-73
2021/10/10 06:24:43;;;;;;;3.60;2.80;;;;;;;13.20;74.18;100915.66;5023044;28;20514;-72
2021/10/10 06:27:08;;;;;;;6.68;2.70;;;;;;;13.13;74.25;100923.88;5022314;28;20041;-72
2021/10/10 06:29:34;;;;;;;4.03;3.15;;;;;;;13.11;74.97;100929.50;5020180;28;20467;-73
2021/10/10 06:31:59;;;;;;;7.18;3.85;;;;;;;13.08;76.61;100924.56;5022741;28;20124;-72
2021/10/10 06:34:28;;;;;;;4.65;3.45;;;;;;;13.10;74.72;100930.56;5019738;28;20037;-74
2021/10/10 06:36:54;;;;;;;6.72;4.22;;;;;;;13.07;76.28;100938.34;5018212;28;20033;-73
2021/10/10 06:39:20;;;;;;;5.03;3.22;;;;;;;13.11;74.39;100942.22;5026423;28;20156;-74
2021/10/10 06:41:46;;;;;;;6.50;3.92;;;;;;;12.99;75.20;100945.72;5025187;28;20061;-73
2021/10/10 06:44:12;;;;;;;6.72;3.67;;;;;;;12.92;74.87;100944.13;5016569;28;20030;-74
2021/10/10 06:46:38;;;;;;;3.40;3.05;;;;;;;12.88;74.91;100941.91;5024549;28;20029;-74
2021/10/10 06:49:04;;;;;;;9.82;4.40;;;;;;;12.98;75.28;100944.06;5028635;28;20034;-74
2021/10/10 06:51:30;;;;;;;7.80;4.70;;;;;;;12.91;76.20;100948.75;5012614;28;20134;-76
2021/10/10 06:53:55;;;;;;;4.63;3.83;;;;;;;12.88;75.87;100960.81;5023890;28;20609;-74
2021/10/10 06:56:21;;;;;;;6.93;4.93;;;;;;;12.95;76.77;100954.50;5017739;28;20471;-72
2021/10/10 06:58:47;;;;;;;11.38;4.53;;;;;;;12.98;75.92;100959.44;5022013;28;20572;-74
2021/10/10 07:01:14;;;;;;;9.40;4.68;;;;;;;12.96;75.97;100954.28;5023477;28;20395;-74
2021/10/10 07:03:40;;;;;;;7.20;4.60;;;;;;;12.96;75.35;100962.41;5010494;28;20034;-74
2021/10/10 07:06:05;;;;;;;4.38;3.90;;;;;;;12.92;75.92;100957.66;5026092;28;20040;-74
2021/10/10 07:08:31;;;;;;;9.05;5.32;;;;;;;12.99;76.29;100963.81;5024390;28;20033;-74
2021/10/10 07:10:58;;;;;;;15.90;5.50;;;;;;;13.03;76.61;100962.28;5008515;28;20041;-74
2021/10/10 07:13:24;;;;;;;6.43;4.38;;;;;;;13.06;75.37;100963.72;5018573;28;20422;-77
2021/10/10 07:15:50;;;;;;;13.25;4.40;;;;;;;13.07;76.38;100971.59;5017125;28;20128;-76
2021/10/10 07:18:30;;;;;;;5.18;3.95;;;;;;;13.12;75.82;100974.44;5015392;28;20154;-76
2021/10/10 07:23:45;;;;;;;4.97;3.80;;;;;;;13.16;74.93;100974.81;5019940;28;20030;-76
2021/10/10 07:26:10;;;;;;;4.25;2.97;;;;;;;13.11;74.99;100977.41;5016435;28;20072;-76
2021/10/10 07:28:39;;;;;;;5.45;2.83;;;;;;;13.08;75.69;100980.56;5018432;28;20502;-78
2021/10/10 07:31:04;;;;;;;3.63;2.75;;;;;;;13.13;76.07;100983.41;5015762;28;20141;-76
2021/10/10 07:33:30;;;;;;;7.47;2.47;;;;;;;13.18;75.13;100983.53;5021880;28;20623;-76
2021/10/10 07:35:55;;;;;;;6.80;2.60;;;;;;;13.24;75.83;100990.72;5012380;28;20459;-75
2021/10/10 07:38:21;;;;;;;5.00;2.70;;;;;;;13.33;75.92;100988.53;5016846;28;20084;-75
2021/10/10 07:40:47;;;;;;;5.20;2.60;;;;;;;13.34;75.38;100987.50;5016523;28;20038;-74
2021/10/10 07:43:13;;;;;;;5.13;2.70;;;;;;;13.43;74.99;100993.41;5018152;28;20037;-72
2021/10/10 07:45:42;;;;;;;3.30;2.30;;;;;;;13.48;73.99;100998.16;5014372;28;20034;-73
2021/10/10 07:48:09;;;;;;;3.83;1.77;;;;;;;13.62;72.48;100996.88;5014901;28;20034;-75
2021/10/10 07:50:35;;;;;;;4.10;1.90;;;;;;;13.80;71.42;100997.84;5016219;28;20029;-79
2021/10/10 07:53:03;;;;;;;2.97;1.63;;;;;;;13.91;70.55;101002.47;5016748;28;20033;-78
2021/10/10 07:55:30;;;;;;;3.38;1.90;;;;;;;14.06;70.66;101007.41;5018723;28;20410;-78
2021/10/10 07:57:57;;;;;;;2.75;1.80;;;;;;;14.16;68.79;101006.84;4997770;28;20033;-76
2021/10/10 08:00:23;;;;;;;2.72;1.55;;;;;;;14.14;68.66;101007.09;5011157;28;20034;-76
2021/10/10 08:02:52;;;;;;;2.63;1.63;;;;;;;14.42;68.56;101008.25;5013013;28;20029;-77
2021/10/10 08:05:18;;;;;;;8.88;1.75;;;;;;;14.49;67.97;101006.25;5008907;28;20030;-76
2021/10/10 08:07:44;;;;;;;4.20;1.60;;;;;;;14.41;68.22;101005.75;5011310;28;20040;-76
2021/10/10 08:10:10;;;;;;;2.58;1.48;;;;;;;14.53;67.98;101011.19;5019017;28;20458;-76
2021/10/10 08:12:35;;;;;;;5.38;2.45;;;;;;;14.75;67.38;101014.09;5025460;28;20036;-78
2021/10/10 08:15:01;;;;;;;5.38;2.00;;;;;;;14.96;66.86;101019.94;5019621;28;20045;-79
2021/10/10 08:17:26;;;;;;;2.45;1.52;;;;;;;15.00;66.32;101026.53;5021921;28;20049;-78
2021/10/10 08:19:52;;;;;;;5.38;1.60;;;;;;;14.93;66.63;101018.56;5019968;28;20052;-78
2021/10/10 08:22:18;;;;;;;3.97;1.50;;;;;;;14.93;66.31;101018.56;5017005;28;20045;-79
2021/10/10 08:24:44;;;;;;;4.15;1.58;;;;;;;14.94;65.66;101017.50;5012362;28;20034;-75
2021/10/10 08:27:10;;;;;;;3.28;1.23;;;;;;;14.89;65.22;101020.91;5018579;28;20033;-76
2021/10/10 08:29:35;;;;;;;5.95;1.42;;;;;;;14.93;65.04;101019.38;5021558;28;20478;-77
2021/10/10 08:32:01;;;;;;;5.03;1.50;;;;;;;15.06;64.52;101022.91;5024164;28;20056;-77
2021/10/10 08:34:26;;;;;;;4.68;1.30;;;;;;;15.05;65.02;101026.66;5027231;28;20042;-77
2021/10/10 08:36:52;;;;;;;4.28;1.50;;;;;;;15.25;64.35;101028.94;4673025;28;10000512;-78
2021/10/10 08:39:23;;;;;;;4.03;1.35;;;;;;;15.43;63.86;101024.38;5016454;28;20045;-80
2021/10/10 08:41:50;;;;;;;7.10;1.75;;;;;;;15.40;63.98;101025.69;5017078;28;20030;-77
2021/10/10 08:44:19;;;;;;;3.60;1.20;;;;;;;15.43;63.47;101027.09;5017167;28;20593;-77
2021/10/10 08:46:45;;;;;;;4.68;1.40;;;;;;;15.51;62.81;101029.41;5021983;28;20038;-77
2021/10/10 08:49:11;;;;;;;6.18;1.60;;;;;;;15.74;63.10;101031.19;5016559;28;20041;-66
2021/10/10 08:51:38;;;;;;;4.78;1.45;;;;;;;15.42;61.64;101029.00;5015635;28;20202;-73
2021/10/10 08:54:04;;;;;;;5.38;1.55;;;;;;;15.88;61.19;101031.69;5009998;28;20069;-82
2021/10/10 08:56:31;;;;;;;5.82;1.30;;;;;;;15.74;61.54;101035.78;5014513;28;20131;-80
2021/10/10 08:58:58;;;;;;;5.40;1.80;;;;;;;15.90;60.90;101034.19;5009814;28;20428;-81
2021/10/10 09:01:32;;;;;;;7.75;1.88;;;;;;;15.97;60.08;101039.47;5014796;28;20475;-79
2021/10/10 09:03:57;;;;;;;12.30;1.88;;;;;;;15.87;59.26;101037.38;5022364;28;20554;-79
2021/10/10 09:06:24;;;;;;;5.45;1.80;;;;;;;15.54;59.81;101037.06;5018595;28;20092;-81
2021/10/10 09:08:52;;;;;;;6.13;1.40;;;;;;;15.94;58.97;101035.34;5016955;28;20076;-84
2021/10/10 09:11:21;;;;;;;11.93;2.00;;;;;;;15.93;58.68;101039.13;5018609;28;20432;-81
2021/10/10 09:13:48;;;;;;;12.23;1.50;;;;;;;16.04;58.67;101038.22;5015710;28;20121;-84
2021/10/10 09:16:14;;;;;;;5.47;1.63;;;;;;;16.27;58.32;101036.38;5012272;28;20126;-85
2021/10/10 09:18:42;;;;;;;6.47;1.70;;;;;;;16.34;58.92;101031.59;5015310;28;20033;-84
2021/10/10 09:21:15;;;;;;;5.93;1.30;;;;;;;16.56;58.37;101038.16;5017928;28;20042;-83
2021/10/10 09:23:40;;;;;;;8.35;2.00;;;;;;;16.25;58.89;101038.53;5021484;28;20431;-85
2021/10/10 09:26:07;;;;;;;11.82;2.00;;;;;;;16.43;58.02;101039.31;5010953;28;20045;-82
2021/10/10 09:28:34;;;;;;;4.88;1.70;;;;;;;16.23;57.96;101046.13;5015381;28;20034;-86
2021/10/10 09:31:05;;;;;;;6.60;1.65;;;;;;;16.16;57.42;101037.31;5009026;28;20037;-84
2021/10/10 09:33:40;;;;;;;5.63;1.45;;;;;;;16.56;57.52;101041.69;5006571;28;20037;-75
2021/10/10 09:36:15;;;;;;;9.63;1.90;;;;;;;16.39;57.14;101041.75;5012935;28;20037;-77
2021/10/10 09:38:47;;;;;;;5.70;1.48;;;;;;;16.59;57.74;101034.94;5014754;28;20061;-79
2021/10/10 09:41:58;;;;;;;5.07;1.60;;;;;;;16.74;57.33;101037.88;5004141;28;20758;-80
2021/10/10 09:44:27;;;;;;;8.35;1.80;;;;;;;16.51;58.43;101042.47;5005850;28;20100;-84
2021/10/10 09:46:57;;;;;;;10.00;1.85;;;;;;;16.81;57.79;101045.84;5016153;28;20037;-81
2021/10/10 09:49:33;;;;;;;5.93;1.85;;;;;;;16.47;57.08;101051.34;5014860;28;20048;-80
2021/10/10 09:52:08;;;;;;;9.27;2.10;;;;;;;16.69;57.27;101045.97;5007275;28;20029;-83
2021/10/10 09:54:50;;;;;;;4.07;1.75;;;;;;;16.69;57.36;101037.78;5028001;28;20046;-83
2021/10/10 09:57:16;;;;;;;6.45;1.98;;;;;;;16.90;56.82;101047.06;5009694;28;20124;-83
2021/10/10 09:59:42;;;;;;;5.88;1.70;;;;;;;16.90;56.67;101043.50;5016617;28;20125;-82
2021/10/10 10:02:08;;;;;;;7.20;1.48;;;;;;;17.09;55.44;101050.28;5014199;28;20033;-82
2021/10/10 10:04:48;;;;;;;7.63;2.03;;;;;;;17.20;55.46;101051.25;5013329;28;20064;-76
2021/10/10 10:07:17;;;;;;;14.85;4.35;;;;;;;16.74;55.02;101058.78;5005129;28;20045;-77
2021/10/10 10:09:43;;;;;;;13.35;5.18;;;;;;;16.88;54.19;101049.22;5012190;28;20363;-76
2021/10/10 10:12:09;;;;;;;17.73;7.55;;;;;;;16.54;55.10;101043.84;5008159;28;20060;-76
2021/10/10 10:14:35;;;;;;;15.68;7.20;;;;;;;16.98;54.54;101037.66;5007896;28;20042;-77
2021/10/10 10:17:02;;;;;;;20.10;9.93;;;;;;;17.03;52.99;101040.44;5008834;28;20033;-77
2021/10/10 10:19:28;;;;;;;22.25;9.88;;;;;;;17.20;51.76;101034.91;5004785;28;20570;-78
2021/10/10 10:21:56;;;;;;;20.67;10.57;;;;;;;17.26;52.74;101038.50;5003767;28;20144;-79
2021/10/10 10:24:22;;;;;;;26.20;13.38;;;;;;;17.24;51.31;101038.78;5016100;28;20455;-78
2021/10/10 10:26:49;;;;;;;28.05;16.88;;;;;;;17.19;51.79;101037.88;5021433;28;20394;-79
2021/10/10 10:29:19;;;;;;;45.05;23.88;;;;;;;16.88;52.57;101034.75;5010094;28;20743;-81
2021/10/10 10:31:46;;;;;;;51.40;26.98;;;;;;;17.35;52.00;101038.88;5014710;28;20026;-81
2021/10/10 10:34:24;;;;;;;50.08;28.98;;;;;;;16.95;53.23;101044.41;5006145;28;20463;-79
2021/10/10 10:37:03;;;;;;;29.42;16.85;;;;;;;17.34;52.35;101039.97;5010233;28;20119;-80
2021/10/10 10:39:32;;;;;;;20.77;10.18;;;;;;;17.69;52.14;101050.41;5006415;28;20026;-80
2021/10/10 10:41:58;;;;;;;10.93;5.10;;;;;;;17.35;51.14;101052.50;5011809;28;20033;-82
2021/10/10 10:44:40;;;;;;;8.98;3.92;;;;;;;17.07;50.92;101052.44;5020847;28;20842;-77
2021/10/10 10:47:07;;;;;;;12.18;3.95;;;;;;;17.60;50.12;101056.56;5012292;28;20045;-77
2021/10/10 10:49:51;;;;;;;12.68;3.70;;;;;;;17.90;50.34;101049.72;5007523;28;20042;-79
2021/10/10 10:52:29;;;;;;;17.05;7.03;;;;;;;17.94;50.29;101051.69;5007656;28;20033;-74
2021/10/10 10:54:59;;;;;;;15.90;8.95;;;;;;;17.98;50.94;101049.25;5009331;28;20068;-74
2021/10/10 10:57:31;;;;;;;14.02;5.80;;;;;;;17.83;49.88;101058.16;5017050;28;20128;-76
2021/10/10 11:00:09;;;;;;;11.18;3.60;;;;;;;17.79;49.30;101046.94;5013978;28;20041;-78
2021/10/10 11:03:18;;;;;;;15.38;7.53;;;;;;;17.91;50.99;101048.66;5014157;28;20719;-79
2021/10/10 11:05:49;;;;;;;22.05;12.52;;;;;;;17.48;51.70;101049.38;5021562;28;20044;-76
2021/10/10 11:08:27;;;;;;;14.93;7.85;;;;;;;17.04;52.60;101041.25;5014109;28;20106;-78
2021/10/10 11:11:19;;;;;;;16.52;6.53;;;;;;;17.41;52.17;101044.09;5013912;28;20038;-75
2021/10/10 11:13:49;;;;;;;12.82;5.45;;;;;;;17.23;51.91;101055.34;5015243;28;20041;-73
2021/10/10 11:16:34;;;;;;;9.55;4.45;;;;;;;17.39;50.47;101049.00;5008367;28;20088;-74
2021/10/10 11:19:05;;;;;;;8.82;4.15;;;;;;;17.77;50.05;101053.72;5018494;28;20041;-82
2021/10/10 11:21:43;;;;;;;23.40;13.10;;;;;;;17.39;49.60;101045.47;5016919;28;20033;-76
2021/10/10 11:24:21;;;;;;;21.50;11.25;;;;;;;17.66;48.77;101050.06;5015978;28;20064;-74
2021/10/10 11:26:50;;;;;;;43.47;24.13;;;;;;;17.30;49.64;101047.81;5005217;28;20057;-78
2021/10/10 11:29:18;;;;;;;35.90;21.33;;;;;;;17.69;49.72;101052.28;5023023;28;20048;-77